sensor_id;sensor_type;location;lat;lon;timestamp;P1;durP1;ratioP1;P2;durP2;ratioP2
36797;SDS011;22748;8.426;99.512;2023-03-26T00:02:08;27.52;;;24.58;;
36797;SDS011;22748;8.426;99.512;2023-03-26T00:07:09;45.20;;;23.45;;
36797;SDS011;22748;8.426;99.512;2023-03-26T00:09:42;45.97;;;26.67;;
36797;SDS011;22748;8.426;99.512;2023-03-26T00:12:14;41.58;;;29.63;;
36797;SDS011;22748;8.426;99.512;2023-03-26T00:14:45;35.78;;;29.80;;
36797;SDS011;22748;8.426;99.512;2023-03-26T00:17:17;37.50;;;31.77;;
36797;SDS011;22748;8.426;99.512;2023-03-26T00:19:48;43.58;;;30.30;;
36797;SDS011;22748;8.426;99.512;2023-03-26T00:22:19;39.15;;;32.90;;
36797;SDS011;22748;8.426;99.512;2023-03-26T00:27:23;33.78;;;26.42;;
36797;SDS011;22748;8.426;99.512;2023-03-26T00:29:55;26.02;;;22.55;;
36797;SDS011;22748;8.426;99.512;2023-03-26T00:32:26;27.75;;;20.80;;
36797;SDS011;22748;8.426;99.512;2023-03-26T00:34:57;23.88;;;21.23;;
36797;SDS011;22748;8.426;99.512;2023-03-26T00:37:30;25.45;;;20.20;;
36797;SDS011;22748;8.426;99.512;2023-03-26T00:40:01;21.55;;;19.27;;
36797;SDS011;22748;8.426;99.512;2023-03-26T00:42:47;25.95;;;21.02;;
36797;SDS011;22748;8.426;99.512;2023-03-26T00:45:21;30.58;;;21.25;;
36797;SDS011;22748;8.426;99.512;2023-03-26T00:47:52;22.63;;;20.07;;
36797;SDS011;22748;8.426;99.512;2023-03-26T00:52:52;24.35;;;20.10;;
36797;SDS011;22748;8.426;99.512;2023-03-26T00:55:24;29.90;;;22.85;;
36797;SDS011;22748;8.426;99.512;2023-03-26T00:58:07;33.58;;;24.23;;
36797;SDS011;22748;8.426;99.512;2023-03-26T01:00:44;28.38;;;21.15;;
36797;SDS011;22748;8.426;99.512;2023-03-26T01:03:16;29.27;;;19.23;;
36797;SDS011;22748;8.426;99.512;2023-03-26T01:05:49;22.23;;;19.10;;
36797;SDS011;22748;8.426;99.512;2023-03-26T01:08:30;22.08;;;18.35;;
36797;SDS011;22748;8.426;99.512;2023-03-26T01:11:03;21.67;;;17.23;;
36797;SDS011;22748;8.426;99.512;2023-03-26T01:13:43;23.63;;;18.58;;
36797;SDS011;22748;8.426;99.512;2023-03-26T01:16:23;20.65;;;18.45;;
36797;SDS011;22748;8.426;99.512;2023-03-26T01:18:56;24.40;;;19.02;;
36797;SDS011;22748;8.426;99.512;2023-03-26T01:21:36;20.40;;;18.27;;
36797;SDS011;22748;8.426;99.512;2023-03-26T01:24:09;25.73;;;19.63;;
36797;SDS011;22748;8.426;99.512;2023-03-26T01:26:43;20.35;;;18.17;;
36797;SDS011;22748;8.426;99.512;2023-03-26T01:29:36;27.55;;;19.73;;
36797;SDS011;22748;8.426;99.512;2023-03-26T01:32:19;23.05;;;19.50;;
36797;SDS011;22748;8.426;99.512;2023-03-26T01:34:59;25.98;;;20.27;;
36797;SDS011;22748;8.426;99.512;2023-03-26T01:37:44;23.45;;;21.00;;
36797;SDS011;22748;8.426;99.512;2023-03-26T01:40:39;23.85;;;21.25;;
36797;SDS011;22748;8.426;99.512;2023-03-26T01:43:22;26.13;;;20.10;;
36797;SDS011;22748;8.426;99.512;2023-03-26T01:46:11;22.52;;;20.27;;
36797;SDS011;22748;8.426;99.512;2023-03-26T01:48:45;23.17;;;20.85;;
36797;SDS011;22748;8.426;99.512;2023-03-26T01:51:25;22.83;;;20.40;;
36797;SDS011;22748;8.426;99.512;2023-03-26T01:53:56;24.25;;;21.40;;
36797;SDS011;22748;8.426;99.512;2023-03-26T01:56:30;24.98;;;21.60;;
36797;SDS011;22748;8.426;99.512;2023-03-26T01:59:14;22.20;;;20.00;;
36797;SDS011;22748;8.426;99.512;2023-03-26T02:02:00;23.15;;;20.75;;
36797;SDS011;22748;8.426;99.512;2023-03-26T02:04:38;23.23;;;20.27;;
36797;SDS011;22748;8.426;99.512;2023-03-26T02:07:20;23.48;;;18.98;;
36797;SDS011;22748;8.426;99.512;2023-03-26T02:12:44;28.75;;;25.83;;
36797;SDS011;22748;8.426;99.512;2023-03-26T02:15:23;21.60;;;19.30;;
36797;SDS011;22748;8.426;99.512;2023-03-26T02:17:59;18.40;;;14.20;;
36797;SDS011;22748;8.426;99.512;2023-03-26T02:20:36;20.55;;;14.88;;
36797;SDS011;22748;8.426;99.512;2023-03-26T02:23:11;14.32;;;12.55;;
36797;SDS011;22748;8.426;99.512;2023-03-26T02:25:55;16.00;;;13.10;;
36797;SDS011;22748;8.426;99.512;2023-03-26T02:29:05;13.70;;;10.88;;
36797;SDS011;22748;8.426;99.512;2023-03-26T02:31:37;13.88;;;12.10;;
36797;SDS011;22748;8.426;99.512;2023-03-26T02:34:13;14.50;;;12.27;;
36797;SDS011;22748;8.426;99.512;2023-03-26T02:36:45;13.38;;;10.35;;
36797;SDS011;22748;8.426;99.512;2023-03-26T02:39:16;12.55;;;10.27;;
36797;SDS011;22748;8.426;99.512;2023-03-26T02:44:19;10.38;;;9.32;;
36797;SDS011;22748;8.426;99.512;2023-03-26T02:46:51;15.95;;;12.05;;
36797;SDS011;22748;8.426;99.512;2023-03-26T02:49:22;16.23;;;11.38;;
36797;SDS011;22748;8.426;99.512;2023-03-26T02:54:22;12.85;;;11.32;;
36797;SDS011;22748;8.426;99.512;2023-03-26T02:56:52;13.45;;;11.32;;
36797;SDS011;22748;8.426;99.512;2023-03-26T02:59:29;11.77;;;10.57;;
36797;SDS011;22748;8.426;99.512;2023-03-26T03:02:00;11.73;;;10.45;;
36797;SDS011;22748;8.426;99.512;2023-03-26T03:04:31;13.48;;;10.48;;
36797;SDS011;22748;8.426;99.512;2023-03-26T03:07:01;13.75;;;10.90;;
36797;SDS011;22748;8.426;99.512;2023-03-26T03:09:34;12.63;;;11.38;;
36797;SDS011;22748;8.426;99.512;2023-03-26T03:12:05;13.18;;;10.50;;
36797;SDS011;22748;8.426;99.512;2023-03-26T03:14:38;13.05;;;11.18;;
36797;SDS011;22748;8.426;99.512;2023-03-26T03:17:09;12.45;;;11.25;;
36797;SDS011;22748;8.426;99.512;2023-03-26T03:19:40;13.13;;;11.10;;
36797;SDS011;22748;8.426;99.512;2023-03-26T03:22:11;13.45;;;11.88;;
36797;SDS011;22748;8.426;99.512;2023-03-26T03:24:42;11.88;;;10.73;;
36797;SDS011;22748;8.426;99.512;2023-03-26T03:27:12;14.17;;;11.23;;
36797;SDS011;22748;8.426;99.512;2023-03-26T03:29:46;11.95;;;10.73;;
36797;SDS011;22748;8.426;99.512;2023-03-26T03:32:19;11.93;;;10.82;;
36797;SDS011;22748;8.426;99.512;2023-03-26T03:37:20;13.82;;;10.75;;
36797;SDS011;22748;8.426;99.512;2023-03-26T03:39:50;15.35;;;13.75;;
36797;SDS011;22748;8.426;99.512;2023-03-26T03:42:23;16.20;;;14.50;;
36797;SDS011;22748;8.426;99.512;2023-03-26T03:44:57;16.63;;;13.15;;
36797;SDS011;22748;8.426;99.512;2023-03-26T03:47:29;13.82;;;12.07;;
36797;SDS011;22748;8.426;99.512;2023-03-26T03:49:59;21.75;;;12.07;;
36797;SDS011;22748;8.426;99.512;2023-03-26T03:52:29;13.77;;;11.40;;
36797;SDS011;22748;8.426;99.512;2023-03-26T03:55:03;12.43;;;11.18;;
36797;SDS011;22748;8.426;99.512;2023-03-26T03:57:36;12.45;;;10.93;;
36797;SDS011;22748;8.426;99.512;2023-03-26T04:00:10;12.55;;;10.60;;
36797;SDS011;22748;8.426;99.512;2023-03-26T04:02:41;13.00;;;11.25;;
36797;SDS011;22748;8.426;99.512;2023-03-26T04:05:12;14.03;;;11.20;;
36797;SDS011;22748;8.426;99.512;2023-03-26T04:07:43;14.90;;;11.05;;
36797;SDS011;22748;8.426;99.512;2023-03-26T04:10:14;12.45;;;11.20;;
36797;SDS011;22748;8.426;99.512;2023-03-26T04:12:45;11.90;;;10.23;;
36797;SDS011;22748;8.426;99.512;2023-03-26T04:15:17;14.27;;;11.43;;
36797;SDS011;22748;8.426;99.512;2023-03-26T04:17:50;12.82;;;11.52;;
36797;SDS011;22748;8.426;99.512;2023-03-26T04:22:49;13.90;;;12.10;;
36797;SDS011;22748;8.426;99.512;2023-03-26T04:25:19;12.98;;;11.88;;
36797;SDS011;22748;8.426;99.512;2023-03-26T04:27:55;13.23;;;11.82;;
36797;SDS011;22748;8.426;99.512;2023-03-26T04:30:29;13.30;;;11.77;;
36797;SDS011;22748;8.426;99.512;2023-03-26T04:33:04;14.38;;;12.88;;
36797;SDS011;22748;8.426;99.512;2023-03-26T04:35:34;14.05;;;12.55;;
36797;SDS011;22748;8.426;99.512;2023-03-26T04:38:08;14.40;;;11.68;;
36797;SDS011;22748;8.426;99.512;2023-03-26T04:40:43;13.05;;;11.95;;
36797;SDS011;22748;8.426;99.512;2023-03-26T04:43:15;14.02;;;12.60;;
36797;SDS011;22748;8.426;99.512;2023-03-26T04:45:47;14.45;;;12.93;;
36797;SDS011;22748;8.426;99.512;2023-03-26T04:48:25;15.90;;;12.82;;
36797;SDS011;22748;8.426;99.512;2023-03-26T04:50:55;13.07;;;11.77;;
36797;SDS011;22748;8.426;99.512;2023-03-26T04:53:26;13.27;;;12.00;;
36797;SDS011;22748;8.426;99.512;2023-03-26T04:55:58;15.52;;;12.65;;
36797;SDS011;22748;8.426;99.512;2023-03-26T04:58:32;13.88;;;12.48;;
36797;SDS011;22748;8.426;99.512;2023-03-26T05:01:08;14.38;;;12.88;;
36797;SDS011;22748;8.426;99.512;2023-03-26T05:03:39;15.80;;;14.23;;
36797;SDS011;22748;8.426;99.512;2023-03-26T05:06:10;13.77;;;12.38;;
36797;SDS011;22748;8.426;99.512;2023-03-26T05:08:42;17.63;;;13.05;;
36797;SDS011;22748;8.426;99.512;2023-03-26T05:11:19;13.75;;;12.40;;
36797;SDS011;22748;8.426;99.512;2023-03-26T05:13:50;14.57;;;13.23;;
36797;SDS011;22748;8.426;99.512;2023-03-26T05:16:24;17.58;;;13.52;;
36797;SDS011;22748;8.426;99.512;2023-03-26T05:18:57;15.40;;;13.80;;
36797;SDS011;22748;8.426;99.512;2023-03-26T05:21:27;14.57;;;13.13;;
36797;SDS011;22748;8.426;99.512;2023-03-26T05:23:57;15.30;;;13.90;;
36797;SDS011;22748;8.426;99.512;2023-03-26T05:26:28;14.77;;;13.37;;
36797;SDS011;22748;8.426;99.512;2023-03-26T05:28:59;18.15;;;13.50;;
36797;SDS011;22748;8.426;99.512;2023-03-26T05:31:32;16.60;;;14.80;;
36797;SDS011;22748;8.426;99.512;2023-03-26T05:34:03;17.45;;;15.85;;
36797;SDS011;22748;8.426;99.512;2023-03-26T05:36:35;14.32;;;12.90;;
36797;SDS011;22748;8.426;99.512;2023-03-26T05:39:05;15.18;;;13.73;;
36797;SDS011;22748;8.426;99.512;2023-03-26T05:41:38;13.82;;;12.43;;
36797;SDS011;22748;8.426;99.512;2023-03-26T05:44:10;13.45;;;12.25;;
36797;SDS011;22748;8.426;99.512;2023-03-26T05:46:42;14.95;;;12.82;;
36797;SDS011;22748;8.426;99.512;2023-03-26T05:49:12;13.98;;;12.63;;
36797;SDS011;22748;8.426;99.512;2023-03-26T05:51:43;14.10;;;12.75;;
36797;SDS011;22748;8.426;99.512;2023-03-26T05:54:13;14.43;;;13.00;;
36797;SDS011;22748;8.426;99.512;2023-03-26T05:56:45;14.25;;;12.75;;
36797;SDS011;22748;8.426;99.512;2023-03-26T05:59:16;14.38;;;13.07;;
36797;SDS011;22748;8.426;99.512;2023-03-26T06:01:48;14.13;;;12.73;;
36797;SDS011;22748;8.426;99.512;2023-03-26T06:04:19;20.13;;;13.77;;
36797;SDS011;22748;8.426;99.512;2023-03-26T06:06:50;17.00;;;14.50;;
36797;SDS011;22748;8.426;99.512;2023-03-26T06:09:21;16.30;;;14.10;;
36797;SDS011;22748;8.426;99.512;2023-03-26T06:11:51;14.88;;;13.38;;
36797;SDS011;22748;8.426;99.512;2023-03-26T06:14:22;14.33;;;12.97;;
36797;SDS011;22748;8.426;99.512;2023-03-26T06:16:57;14.25;;;12.90;;
36797;SDS011;22748;8.426;99.512;2023-03-26T06:19:28;14.93;;;13.40;;
36797;SDS011;22748;8.426;99.512;2023-03-26T06:21:59;13.63;;;12.23;;
36797;SDS011;22748;8.426;99.512;2023-03-26T06:24:31;14.00;;;12.70;;
36797;SDS011;22748;8.426;99.512;2023-03-26T06:27:02;13.60;;;12.40;;
36797;SDS011;22748;8.426;99.512;2023-03-26T06:29:33;18.10;;;14.18;;
36797;SDS011;22748;8.426;99.512;2023-03-26T06:32:06;14.93;;;13.02;;
36797;SDS011;22748;8.426;99.512;2023-03-26T06:34:36;15.15;;;12.35;;
36797;SDS011;22748;8.426;99.512;2023-03-26T06:37:07;13.05;;;11.93;;
36797;SDS011;22748;8.426;99.512;2023-03-26T06:39:40;14.68;;;13.40;;
36797;SDS011;22748;8.426;99.512;2023-03-26T06:42:11;14.05;;;12.80;;
36797;SDS011;22748;8.426;99.512;2023-03-26T06:44:42;14.45;;;12.95;;
36797;SDS011;22748;8.426;99.512;2023-03-26T06:47:15;15.25;;;13.75;;
36797;SDS011;22748;8.426;99.512;2023-03-26T06:49:45;15.95;;;14.35;;
36797;SDS011;22748;8.426;99.512;2023-03-26T06:52:16;14.93;;;13.40;;
36797;SDS011;22748;8.426;99.512;2023-03-26T06:54:46;14.23;;;13.00;;
36797;SDS011;22748;8.426;99.512;2023-03-26T06:57:17;14.80;;;13.38;;
36797;SDS011;22748;8.426;99.512;2023-03-26T06:59:47;14.73;;;13.32;;
36797;SDS011;22748;8.426;99.512;2023-03-26T07:02:21;14.88;;;13.20;;
36797;SDS011;22748;8.426;99.512;2023-03-26T07:04:54;14.88;;;13.38;;
36797;SDS011;22748;8.426;99.512;2023-03-26T07:07:24;14.73;;;13.32;;
36797;SDS011;22748;8.426;99.512;2023-03-26T07:09:55;15.43;;;14.02;;
36797;SDS011;22748;8.426;99.512;2023-03-26T07:12:26;14.27;;;12.98;;
36797;SDS011;22748;8.426;99.512;2023-03-26T07:14:57;13.90;;;12.70;;
36797;SDS011;22748;8.426;99.512;2023-03-26T07:17:31;14.85;;;13.45;;
36797;SDS011;22748;8.426;99.512;2023-03-26T07:20:03;15.75;;;14.20;;
36797;SDS011;22748;8.426;99.512;2023-03-26T07:22:35;15.57;;;14.05;;
36797;SDS011;22748;8.426;99.512;2023-03-26T07:25:09;15.85;;;14.23;;
36797;SDS011;22748;8.426;99.512;2023-03-26T07:27:44;14.82;;;13.32;;
36797;SDS011;22748;8.426;99.512;2023-03-26T07:32:58;14.88;;;13.38;;
36797;SDS011;22748;8.426;99.512;2023-03-26T07:35:35;14.38;;;12.98;;
36797;SDS011;22748;8.426;99.512;2023-03-26T07:38:31;15.13;;;13.68;;
36797;SDS011;22748;8.426;99.512;2023-03-26T07:41:11;15.13;;;13.73;;
36797;SDS011;22748;8.426;99.512;2023-03-26T07:44:09;14.90;;;13.40;;
36797;SDS011;22748;8.426;99.512;2023-03-26T07:46:59;14.48;;;13.23;;
36797;SDS011;22748;8.426;99.512;2023-03-26T07:49:43;16.38;;;13.10;;
36797;SDS011;22748;8.426;99.512;2023-03-26T07:52:15;14.80;;;13.50;;
36797;SDS011;22748;8.426;99.512;2023-03-26T07:54:46;15.13;;;13.63;;
36797;SDS011;22748;8.426;99.512;2023-03-26T07:57:19;15.55;;;14.07;;
36797;SDS011;22748;8.426;99.512;2023-03-26T08:00:02;14.65;;;13.32;;
36797;SDS011;22748;8.426;99.512;2023-03-26T08:05:45;14.48;;;13.18;;
36797;SDS011;22748;8.426;99.512;2023-03-26T08:08:23;13.75;;;12.65;;
36797;SDS011;22748;8.426;99.512;2023-03-26T08:11:06;14.52;;;13.18;;
36797;SDS011;22748;8.426;99.512;2023-03-26T08:13:57;14.95;;;13.45;;
36797;SDS011;22748;8.426;99.512;2023-03-26T08:16:37;15.55;;;14.05;;
36797;SDS011;22748;8.426;99.512;2023-03-26T08:19:23;14.90;;;12.93;;
36797;SDS011;22748;8.426;99.512;2023-03-26T08:22:07;14.10;;;12.77;;
36797;SDS011;22748;8.426;99.512;2023-03-26T08:24:46;14.07;;;12.60;;
36797;SDS011;22748;8.426;99.512;2023-03-26T08:27:29;14.40;;;13.05;;
36797;SDS011;22748;8.426;99.512;2023-03-26T08:30:08;14.40;;;12.95;;
36797;SDS011;22748;8.426;99.512;2023-03-26T08:32:47;21.95;;;14.65;;
36797;SDS011;22748;8.426;99.512;2023-03-26T08:35:21;14.55;;;13.20;;
36797;SDS011;22748;8.426;99.512;2023-03-26T08:40:33;14.68;;;12.90;;
36797;SDS011;22748;8.426;99.512;2023-03-26T08:43:38;14.65;;;13.27;;
36797;SDS011;22748;8.426;99.512;2023-03-26T08:53:09;14.88;;;12.70;;
36797;SDS011;22748;8.426;99.512;2023-03-26T08:59:00;14.25;;;12.90;;
36797;SDS011;22748;8.426;99.512;2023-03-26T09:08:14;14.82;;;13.43;;
36797;SDS011;22748;8.426;99.512;2023-03-26T09:11:17;14.35;;;13.15;;
36797;SDS011;22748;8.426;99.512;2023-03-26T09:14:17;17.98;;;16.38;;
36797;SDS011;22748;8.426;99.512;2023-03-26T09:26:25;17.08;;;15.05;;
36797;SDS011;22748;8.426;99.512;2023-03-26T09:29:11;16.42;;;14.82;;
36797;SDS011;22748;8.426;99.512;2023-03-26T09:32:23;17.00;;;14.27;;
36797;SDS011;22748;8.426;99.512;2023-03-26T09:38:16;15.68;;;14.27;;
36797;SDS011;22748;8.426;99.512;2023-03-26T09:41:02;15.57;;;14.05;;
36797;SDS011;22748;8.426;99.512;2023-03-26T09:46:52;15.48;;;14.07;;
36797;SDS011;22748;8.426;99.512;2023-03-26T09:49:42;17.30;;;14.52;;
36797;SDS011;22748;8.426;99.512;2023-03-26T09:55:22;13.65;;;12.45;;
36797;SDS011;22748;8.426;99.512;2023-03-26T10:01:10;14.00;;;12.30;;
36797;SDS011;22748;8.426;99.512;2023-03-26T10:03:50;12.48;;;11.38;;
36797;SDS011;22748;8.426;99.512;2023-03-26T10:09:24;12.60;;;11.40;;
36797;SDS011;22748;8.426;99.512;2023-03-26T10:12:09;10.93;;;9.93;;
36797;SDS011;22748;8.426;99.512;2023-03-26T10:14:50;11.63;;;10.18;;
36797;SDS011;22748;8.426;99.512;2023-03-26T10:17:34;11.60;;;10.50;;
36797;SDS011;22748;8.426;99.512;2023-03-26T10:26:39;11.32;;;10.23;;
36797;SDS011;22748;8.426;99.512;2023-03-26T10:29:25;13.68;;;11.10;;
36797;SDS011;22748;8.426;99.512;2023-03-26T10:32:10;13.68;;;10.25;;
36797;SDS011;22748;8.426;99.512;2023-03-26T10:34:55;14.32;;;10.52;;
36797;SDS011;22748;8.426;99.512;2023-03-26T10:37:42;11.98;;;10.15;;
36797;SDS011;22748;8.426;99.512;2023-03-26T10:40:23;11.07;;;9.82;;
36797;SDS011;22748;8.426;99.512;2023-03-26T10:52:20;10.15;;;9.00;;
36797;SDS011;22748;8.426;99.512;2023-03-26T10:54:55;11.52;;;7.25;;
36797;SDS011;22748;8.426;99.512;2023-03-26T10:57:36;10.23;;;8.38;;
36797;SDS011;22748;8.426;99.512;2023-03-26T11:00:16;10.43;;;8.55;;
36797;SDS011;22748;8.426;99.512;2023-03-26T11:05:50;10.02;;;7.68;;
36797;SDS011;22748;8.426;99.512;2023-03-26T11:08:30;10.45;;;8.48;;
36797;SDS011;22748;8.426;99.512;2023-03-26T11:11:12;9.35;;;8.30;;
36797;SDS011;22748;8.426;99.512;2023-03-26T11:13:52;23.63;;;13.20;;
36797;SDS011;22748;8.426;99.512;2023-03-26T11:16:31;19.42;;;10.60;;
36797;SDS011;22748;8.426;99.512;2023-03-26T11:19:16;12.05;;;9.52;;
36797;SDS011;22748;8.426;99.512;2023-03-26T11:21:54;13.88;;;9.82;;
36797;SDS011;22748;8.426;99.512;2023-03-26T11:24:42;10.90;;;8.60;;
36797;SDS011;22748;8.426;99.512;2023-03-26T11:27:49;9.23;;;8.32;;
36797;SDS011;22748;8.426;99.512;2023-03-26T11:30:36;29.20;;;10.82;;
36797;SDS011;22748;8.426;99.512;2023-03-26T11:33:16;13.07;;;9.10;;
36797;SDS011;22748;8.426;99.512;2023-03-26T11:35:52;10.18;;;8.80;;
36797;SDS011;22748;8.426;99.512;2023-03-26T11:38:29;10.10;;;8.35;;
36797;SDS011;22748;8.426;99.512;2023-03-26T11:41:11;10.95;;;8.70;;
36797;SDS011;22748;8.426;99.512;2023-03-26T11:43:46;12.57;;;8.35;;
36797;SDS011;22748;8.426;99.512;2023-03-26T11:46:19;14.73;;;8.32;;
36797;SDS011;22748;8.426;99.512;2023-03-26T11:48:52;9.25;;;8.38;;
36797;SDS011;22748;8.426;99.512;2023-03-26T11:51:27;11.52;;;8.75;;
36797;SDS011;22748;8.426;99.512;2023-03-26T11:54:04;16.23;;;8.77;;
36797;SDS011;22748;8.426;99.512;2023-03-26T11:56:36;12.45;;;10.20;;
36797;SDS011;22748;8.426;99.512;2023-03-26T11:59:17;13.27;;;11.25;;
36797;SDS011;22748;8.426;99.512;2023-03-26T12:01:54;15.25;;;10.30;;
36797;SDS011;22748;8.426;99.512;2023-03-26T12:04:26;15.05;;;10.10;;
36797;SDS011;22748;8.426;99.512;2023-03-26T12:07:06;23.08;;;14.25;;
36797;SDS011;22748;8.426;99.512;2023-03-26T12:12:19;25.25;;;17.17;;
36797;SDS011;22748;8.426;99.512;2023-03-26T12:14:55;17.90;;;15.07;;
36797;SDS011;22748;8.426;99.512;2023-03-26T12:17:30;20.65;;;14.13;;
36797;SDS011;22748;8.426;99.512;2023-03-26T12:23:01;16.02;;;12.25;;
36797;SDS011;22748;8.426;99.512;2023-03-26T12:25:34;28.60;;;14.13;;
36797;SDS011;22748;8.426;99.512;2023-03-26T12:28:15;30.80;;;18.00;;
36797;SDS011;22748;8.426;99.512;2023-03-26T12:30:56;32.42;;;22.77;;
36797;SDS011;22748;8.426;99.512;2023-03-26T12:33:50;40.70;;;24.08;;
36797;SDS011;22748;8.426;99.512;2023-03-26T12:36:35;39.90;;;25.10;;
36797;SDS011;22748;8.426;99.512;2023-03-26T12:39:20;40.00;;;25.20;;
36797;SDS011;22748;8.426;99.512;2023-03-26T12:41:57;37.75;;;23.55;;
36797;SDS011;22748;8.426;99.512;2023-03-26T12:44:34;26.85;;;20.10;;
36797;SDS011;22748;8.426;99.512;2023-03-26T12:47:17;31.67;;;20.10;;
36797;SDS011;22748;8.426;99.512;2023-03-26T12:49:51;28.58;;;19.85;;
36797;SDS011;22748;8.426;99.512;2023-03-26T12:52:29;24.10;;;17.27;;
36797;SDS011;22748;8.426;99.512;2023-03-26T12:55:21;20.83;;;15.88;;
36797;SDS011;22748;8.426;99.512;2023-03-26T12:58:05;19.38;;;15.02;;
36797;SDS011;22748;8.426;99.512;2023-03-26T13:00:52;19.65;;;13.98;;
36797;SDS011;22748;8.426;99.512;2023-03-26T13:03:38;24.20;;;17.00;;
36797;SDS011;22748;8.426;99.512;2023-03-26T13:06:23;18.58;;;14.05;;
36797;SDS011;22748;8.426;99.512;2023-03-26T13:12:05;24.95;;;13.85;;
36797;SDS011;22748;8.426;99.512;2023-03-26T13:17:37;19.25;;;13.35;;
36797;SDS011;22748;8.426;99.512;2023-03-26T13:20:18;17.38;;;12.52;;
36797;SDS011;22748;8.426;99.512;2023-03-26T13:22:58;18.90;;;13.07;;
36797;SDS011;22748;8.426;99.512;2023-03-26T13:25:34;19.17;;;13.02;;
36797;SDS011;22748;8.426;99.512;2023-03-26T13:28:20;18.85;;;12.88;;
36797;SDS011;22748;8.426;99.512;2023-03-26T13:31:04;14.10;;;12.30;;
36797;SDS011;22748;8.426;99.512;2023-03-26T13:33:44;16.77;;;12.13;;
36797;SDS011;22748;8.426;99.512;2023-03-26T13:36:25;16.33;;;12.30;;
36797;SDS011;22748;8.426;99.512;2023-03-26T13:39:10;17.33;;;12.05;;
36797;SDS011;22748;8.426;99.512;2023-03-26T13:45:09;14.27;;;11.68;;
36797;SDS011;22748;8.426;99.512;2023-03-26T13:47:48;15.75;;;11.75;;
36797;SDS011;22748;8.426;99.512;2023-03-26T13:50:20;14.35;;;12.10;;
36797;SDS011;22748;8.426;99.512;2023-03-26T13:52:57;16.30;;;11.98;;
36797;SDS011;22748;8.426;99.512;2023-03-26T13:55:31;14.88;;;11.68;;
36797;SDS011;22748;8.426;99.512;2023-03-26T13:58:09;16.13;;;11.38;;
36797;SDS011;22748;8.426;99.512;2023-03-26T14:00:50;20.47;;;11.90;;
36797;SDS011;22748;8.426;99.512;2023-03-26T14:03:30;17.20;;;11.10;;
36797;SDS011;22748;8.426;99.512;2023-03-26T14:06:23;16.17;;;11.70;;
36797;SDS011;22748;8.426;99.512;2023-03-26T14:09:11;16.00;;;11.77;;
36797;SDS011;22748;8.426;99.512;2023-03-26T14:14:49;17.95;;;11.75;;
36797;SDS011;22748;8.426;99.512;2023-03-26T14:17:29;14.03;;;11.07;;
36797;SDS011;22748;8.426;99.512;2023-03-26T14:23:19;13.63;;;10.82;;
36797;SDS011;22748;8.426;99.512;2023-03-26T14:26:07;15.50;;;11.10;;
36797;SDS011;22748;8.426;99.512;2023-03-26T14:31:50;11.45;;;10.25;;
36797;SDS011;22748;8.426;99.512;2023-03-26T14:34:42;13.25;;;11.75;;
36797;SDS011;22748;8.426;99.512;2023-03-26T14:37:29;13.25;;;11.18;;
36797;SDS011;22748;8.426;99.512;2023-03-26T14:43:18;12.38;;;10.18;;
36797;SDS011;22748;8.426;99.512;2023-03-26T14:46:20;14.13;;;10.50;;
36797;SDS011;22748;8.426;99.512;2023-03-26T14:52:01;15.38;;;9.73;;
36797;SDS011;22748;8.426;99.512;2023-03-26T14:57:31;12.60;;;9.13;;
36797;SDS011;22748;8.426;99.512;2023-03-26T15:06:46;9.43;;;8.25;;
36797;SDS011;22748;8.426;99.512;2023-03-26T15:12:45;10.02;;;8.40;;
36797;SDS011;22748;8.426;99.512;2023-03-26T15:28:13;9.90;;;7.80;;
36797;SDS011;22748;8.426;99.512;2023-03-26T15:40:43;9.35;;;7.70;;
36797;SDS011;22748;8.426;99.512;2023-03-26T15:43:25;8.50;;;6.88;;
36797;SDS011;22748;8.426;99.512;2023-03-26T15:46:29;11.20;;;7.25;;
36797;SDS011;22748;8.426;99.512;2023-03-26T15:49:14;11.73;;;8.02;;
36797;SDS011;22748;8.426;99.512;2023-03-26T15:51:53;8.80;;;7.35;;
36797;SDS011;22748;8.426;99.512;2023-03-26T15:54:35;9.00;;;7.53;;
36797;SDS011;22748;8.426;99.512;2023-03-26T15:57:16;8.25;;;7.35;;
36797;SDS011;22748;8.426;99.512;2023-03-26T16:00:00;9.00;;;8.05;;
36797;SDS011;22748;8.426;99.512;2023-03-26T16:02:44;8.65;;;7.78;;
36797;SDS011;22748;8.426;99.512;2023-03-26T16:05:31;8.20;;;7.40;;
36797;SDS011;22748;8.426;99.512;2023-03-26T16:08:21;10.52;;;8.05;;
36797;SDS011;22748;8.426;99.512;2023-03-26T16:10:57;8.57;;;7.68;;
36797;SDS011;22748;8.426;99.512;2023-03-26T16:13:35;9.32;;;7.88;;
36797;SDS011;22748;8.426;99.512;2023-03-26T16:16:25;8.82;;;7.97;;
36797;SDS011;22748;8.426;99.512;2023-03-26T16:22:43;10.00;;;8.27;;
36797;SDS011;22748;8.426;99.512;2023-03-26T16:25:27;9.15;;;8.05;;
36797;SDS011;22748;8.426;99.512;2023-03-26T16:31:17;10.15;;;9.15;;
36797;SDS011;22748;8.426;99.512;2023-03-26T16:33:55;9.40;;;8.23;;
36797;SDS011;22748;8.426;99.512;2023-03-26T16:36:50;11.68;;;8.32;;
36797;SDS011;22748;8.426;99.512;2023-03-26T16:39:26;9.13;;;8.15;;
36797;SDS011;22748;8.426;99.512;2023-03-26T16:45:09;10.52;;;8.77;;
36797;SDS011;22748;8.426;99.512;2023-03-26T16:47:52;12.63;;;8.85;;
36797;SDS011;22748;8.426;99.512;2023-03-26T16:50:35;8.43;;;7.68;;
36797;SDS011;22748;8.426;99.512;2023-03-26T16:53:19;8.77;;;7.75;;
36797;SDS011;22748;8.426;99.512;2023-03-26T16:56:04;10.68;;;8.15;;
36797;SDS011;22748;8.426;99.512;2023-03-26T16:58:49;9.52;;;8.00;;
36797;SDS011;22748;8.426;99.512;2023-03-26T17:01:30;11.85;;;8.15;;
36797;SDS011;22748;8.426;99.512;2023-03-26T17:04:09;9.88;;;8.50;;
36797;SDS011;22748;8.426;99.512;2023-03-26T17:06:59;11.23;;;8.70;;
36797;SDS011;22748;8.426;99.512;2023-03-26T17:09:49;13.60;;;8.88;;
36797;SDS011;22748;8.426;99.512;2023-03-26T17:12:28;10.90;;;8.85;;
36797;SDS011;22748;8.426;99.512;2023-03-26T17:15:12;11.23;;;9.70;;
36797;SDS011;22748;8.426;99.512;2023-03-26T17:17:55;11.48;;;9.68;;
36797;SDS011;22748;8.426;99.512;2023-03-26T17:20:35;11.10;;;10.00;;
36797;SDS011;22748;8.426;99.512;2023-03-26T17:25:58;12.57;;;10.18;;
36797;SDS011;22748;8.426;99.512;2023-03-26T17:28:54;12.77;;;10.00;;
36797;SDS011;22748;8.426;99.512;2023-03-26T17:31:39;9.57;;;8.68;;
36797;SDS011;22748;8.426;99.512;2023-03-26T17:40:29;9.82;;;8.25;;
36797;SDS011;22748;8.426;99.512;2023-03-26T17:49:17;9.75;;;8.75;;
36797;SDS011;22748;8.426;99.512;2023-03-26T17:51:53;11.45;;;9.30;;
36797;SDS011;22748;8.426;99.512;2023-03-26T17:54:29;11.63;;;9.43;;
36797;SDS011;22748;8.426;99.512;2023-03-26T17:57:04;10.48;;;9.40;;
36797;SDS011;22748;8.426;99.512;2023-03-26T17:59:39;11.55;;;9.73;;
36797;SDS011;22748;8.426;99.512;2023-03-26T18:02:13;12.63;;;9.50;;
36797;SDS011;22748;8.426;99.512;2023-03-26T18:04:48;10.57;;;9.35;;
36797;SDS011;22748;8.426;99.512;2023-03-26T18:10:47;11.02;;;9.52;;
36797;SDS011;22748;8.426;99.512;2023-03-26T18:16:47;10.15;;;9.15;;
36797;SDS011;22748;8.426;99.512;2023-03-26T18:19:20;10.45;;;9.15;;
36797;SDS011;22748;8.426;99.512;2023-03-26T18:21:52;11.93;;;9.65;;
36797;SDS011;22748;8.426;99.512;2023-03-26T18:24:27;12.05;;;10.75;;
36797;SDS011;22748;8.426;99.512;2023-03-26T18:27:01;10.85;;;9.75;;
36797;SDS011;22748;8.426;99.512;2023-03-26T18:29:33;11.38;;;10.27;;
36797;SDS011;22748;8.426;99.512;2023-03-26T18:32:28;12.20;;;11.00;;
36797;SDS011;22748;8.426;99.512;2023-03-26T18:35:10;13.55;;;9.90;;